createdAt,value
2023-08-08T00:01:50.519Z,101403.81
2023-08-08T00:04:18.860Z,101405.63
2023-08-08T00:06:49.452Z,101394.91
2023-08-08T00:09:18.807Z,101385.13
2023-08-08T00:11:46.843Z,101392.22
2023-08-08T00:14:14.749Z,101386.09
2023-08-08T00:16:45.291Z,101387.03
2023-08-08T00:19:13.290Z,101391.47
2023-08-08T00:21:41.210Z,101394.13
2023-08-08T00:24:09.127Z,101386.09
2023-08-08T00:26:38.531Z,101383.47
2023-08-08T00:29:07.299Z,101387.03
2023-08-08T00:31:35.343Z,101379.94
2023-08-08T00:34:03.236Z,101374.59
2023-08-08T00:36:31.406Z,101379.09
2023-08-08T00:38:59.410Z,101383.59
2023-08-08T00:41:27.821Z,101377.25
2023-08-08T00:43:57.216Z,101374.69
2023-08-08T00:46:25.988Z,101380.03
2023-08-08T00:48:57.395Z,101378.22
2023-08-08T00:51:26.594Z,101373.81
2023-08-08T00:53:55.432Z,101375.53
2023-08-08T00:56:23.860Z,101370.19
2023-08-08T00:58:52.338Z,101370.19
2023-08-08T01:01:21.898Z,101372.88
2023-08-08T01:03:50.895Z,101364.88
2023-08-08T01:06:25.326Z,101365.78
2023-08-08T01:08:59.707Z,101374.75
2023-08-08T01:11:30.424Z,101372.88
2023-08-08T01:13:59.008Z,101373.72
2023-08-08T01:16:29.064Z,101371.03
2023-08-08T01:18:58.374Z,101381.75
2023-08-08T01:21:29.711Z,101378.13
2023-08-08T01:24:03.399Z,101374.59
2023-08-08T01:26:35.635Z,101362.91
2023-08-08T01:29:03.435Z,101370.94
2023-08-08T01:31:31.384Z,101379.84
2023-08-08T01:33:59.427Z,101352.19
2023-08-08T01:36:32.783Z,101343.28
2023-08-08T01:39:05.512Z,101350.47
2023-08-08T01:41:36.027Z,101358.50
2023-08-08T01:44:04.783Z,101354.84
2023-08-08T01:46:33.468Z,101349.50
2023-08-08T01:49:01.525Z,101345.88
2023-08-08T01:51:29.668Z,101343.22
2023-08-08T01:53:58.132Z,101348.56
2023-08-08T01:56:26.168Z,101351.25
2023-08-08T01:58:55.474Z,101346.06
2023-08-08T02:01:23.534Z,101354.00
2023-08-08T02:03:51.669Z,101343.28
2023-08-08T02:06:22.046Z,101341.56
2023-08-08T02:08:50.061Z,101342.41
2023-08-08T02:11:20.054Z,101344.25
2023-08-08T02:13:47.981Z,101331.69
2023-08-08T02:16:17.459Z,101333.50
2023-08-08T02:18:45.538Z,101334.38
2023-08-08T02:21:13.672Z,101332.56
2023-08-08T02:23:41.668Z,101320.13
2023-08-08T02:26:09.659Z,101317.44
2023-08-08T02:28:37.918Z,101312.06
2023-08-08T02:31:05.912Z,101308.53
2023-08-08T02:33:35.251Z,101309.41
2023-08-08T02:36:03.300Z,101302.22
2023-08-08T02:38:33.498Z,101307.56
2023-08-08T02:41:01.492Z,101314.75
2023-08-08T02:43:29.508Z,101306.81
2023-08-08T02:45:57.433Z,101313.03
2023-08-08T02:48:25.567Z,101316.56
2023-08-08T02:50:55.100Z,101312.19
2023-08-08T02:53:23.195Z,101313.09
2023-08-08T02:55:51.178Z,101315.78
2023-08-08T02:58:19.157Z,101303.34
2023-08-08T03:00:47.309Z,101300.66
2023-08-08T03:03:15.519Z,101298.09
2023-08-08T03:05:46.149Z,101295.41
2023-08-08T03:08:15.504Z,101303.44
2023-08-08T03:10:46.063Z,101304.31
2023-08-08T03:13:14.042Z,101299.88
2023-08-08T03:15:42.034Z,101306.19
2023-08-08T03:18:10.119Z,101302.56
2023-08-08T03:20:41.295Z,101299.00
2023-08-08T03:23:09.354Z,101301.69
2023-08-08T03:25:38.641Z,101302.56
2023-08-08T03:28:06.810Z,101303.50
2023-08-08T03:30:34.919Z,101297.19
2023-08-08T03:33:02.977Z,101299.00
2023-08-08T03:35:31.291Z,101287.44
2023-08-08T03:37:59.331Z,101290.97
2023-08-08T03:40:27.376Z,101291.06
2023-08-08T03:42:56.669Z,101298.31
2023-08-08T03:45:24.753Z,101286.69
2023-08-08T03:47:52.848Z,101290.22
2023-08-08T03:50:21.020Z,101285.81
2023-08-08T03:52:49.074Z,101287.59
2023-08-08T03:55:17.128Z,101287.59
2023-08-08T03:57:45.167Z,101282.25
2023-08-08T04:00:15.175Z,101277.09
2023-08-08T04:02:43.326Z,101268.94
2023-08-08T04:05:11.327Z,101273.44
2023-08-08T04:07:39.293Z,101271.63
2023-08-08T04:10:08.511Z,101280.53
2023-08-08T04:12:36.516Z,101282.34
2023-08-08T04:15:04.761Z,101277.84
2023-08-08T04:17:34.173Z,101276.13
2023-08-08T04:20:02.288Z,101281.38
2023-08-08T04:22:30.255Z,101277.00
2023-08-08T04:24:58.537Z,101275.16
2023-08-08T04:27:30.253Z,101268.00
2023-08-08T04:29:58.287Z,101273.34
2023-08-08T04:32:26.223Z,101268.94
2023-08-08T04:34:55.521Z,101269.81
2023-08-08T04:37:26.120Z,101270.66
2023-08-08T04:39:54.118Z,101272.50
2023-08-08T04:42:22.183Z,101269.81
2023-08-08T04:44:50.230Z,101269.81
2023-08-08T04:47:18.344Z,101268.00
2023-08-08T04:49:46.358Z,101280.53
2023-08-08T04:52:18.614Z,101264.44
2023-08-08T04:54:49.519Z,101269.81
2023-08-08T04:57:17.524Z,101267.13
2023-08-08T04:59:48.724Z,101274.22
2023-08-08T05:02:17.537Z,101268.84
2023-08-08T05:04:48.774Z,101263.47
2023-08-08T05:07:20.139Z,101266.16
2023-08-08T05:09:51.013Z,101262.63
2023-08-08T05:12:19.015Z,101259.09
2023-08-08T05:14:47.099Z,101257.19
2023-08-08T05:17:15.047Z,101259.94
2023-08-08T05:19:42.972Z,101256.41
2023-08-08T05:22:10.969Z,101249.22
2023-08-08T05:24:40.300Z,101257.19
2023-08-08T05:27:08.509Z,101248.38
2023-08-08T05:29:39.208Z,101259.03
2023-08-08T05:32:08.735Z,101262.56
2023-08-08T05:34:37.160Z,101257.19
2023-08-08T05:37:15.699Z,101255.28
2023-08-08T05:39:46.525Z,101253.56
2023-08-08T05:42:14.516Z,101256.06
2023-08-08T05:44:45.522Z,101263.25
2023-08-08T05:47:13.616Z,101253.38
2023-08-08T05:49:44.529Z,101260.56
2023-08-08T05:52:15.241Z,101255.09
2023-08-08T05:54:43.300Z,101259.59
2023-08-08T05:57:12.677Z,101257.88
2023-08-08T05:59:40.664Z,101253.38
2023-08-08T06:02:08.701Z,101258.75
2023-08-08T06:04:36.755Z,101270.38
2023-08-08T06:07:06.288Z,101272.13
2023-08-08T06:09:35.553Z,101270.38
2023-08-08T06:12:03.716Z,101272.13
2023-08-08T06:14:33.530Z,101273.97
2023-08-08T06:17:01.991Z,101277.56
2023-08-08T06:19:29.933Z,101275.75
2023-08-08T06:21:57.976Z,101278.44
2023-08-08T06:24:25.997Z,101275.75
2023-08-08T06:26:54.042Z,101283.78
2023-08-08T06:29:22.429Z,101285.53
2023-08-08T06:31:51.856Z,101285.53
2023-08-08T06:34:22.744Z,101292.63
2023-08-08T06:36:50.901Z,101288.13
2023-08-08T06:39:22.889Z,101292.53
2023-08-08T06:41:50.895Z,101297.03
2023-08-08T06:44:21.782Z,101298.84
2023-08-08T06:46:51.188Z,101299.69
2023-08-08T06:49:19.192Z,101303.25
2023-08-08T06:51:47.178Z,101297.88
2023-08-08T06:54:15.203Z,101298.78
2023-08-08T06:56:43.182Z,101293.41
2023-08-08T06:59:11.111Z,101295.19
2023-08-08T07:01:39.125Z,101299.88
2023-08-08T07:04:08.481Z,101292.97
2023-08-08T07:06:37.337Z,101289.53
2023-08-08T07:09:05.468Z,101292.38
2023-08-08T07:11:33.553Z,101292.47
2023-08-08T07:14:01.678Z,101292.56
2023-08-08T07:16:29.576Z,101290.66
2023-08-08T07:18:57.575Z,101288.84
2023-08-08T07:21:30.582Z,101284.34
2023-08-08T07:23:58.933Z,101278.13
2023-08-08T07:26:26.974Z,101284.44
2023-08-08T07:28:54.942Z,101285.31
2023-08-08T07:31:22.987Z,101282.44
2023-08-08T07:33:50.979Z,101278.81
2023-08-08T07:36:19.054Z,101280.63
2023-08-08T07:38:48.380Z,101284.28
2023-08-08T07:41:16.453Z,101276.13
2023-08-08T07:43:44.417Z,101284.16
2023-08-08T07:46:12.690Z,101272.50
2023-08-08T07:48:41.518Z,101277.84
2023-08-08T07:51:09.548Z,101280.53
2023-08-08T07:53:37.549Z,101274.31
2023-08-08T07:56:06.930Z,101272.59
2023-08-08T07:58:35.099Z,101276.41
2023-08-08T08:01:08.192Z,101278.03
2023-08-08T08:03:36.669Z,101276.31
2023-08-08T08:06:05.037Z,101274.59
2023-08-08T08:08:33.035Z,101274.59
2023-08-08T08:11:01.378Z,101278.13
2023-08-08T08:13:30.845Z,101271.03
2023-08-08T08:15:59.230Z,101281.66
2023-08-08T08:18:27.224Z,101278.13
2023-08-08T08:20:55.485Z,101276.31
2023-08-08T08:23:23.465Z,101274.59
2023-08-08T08:25:51.652Z,101267.41
2023-08-08T08:28:19.796Z,101270.94
2023-08-08T08:30:49.229Z,101259.25
2023-08-08T08:33:17.316Z,101269.81
2023-08-08T08:35:46.674Z,101260.63
2023-08-08T08:38:14.709Z,101274.03
2023-08-08T08:40:45.500Z,101264.28
2023-08-08T08:43:13.873Z,101263.47
2023-08-08T08:45:44.978Z,101269.06
2023-08-08T08:48:17.625Z,101274.59
2023-08-08T08:50:49.546Z,101265.69
2023-08-08T08:53:18.873Z,101268.44
2023-08-08T08:55:47.018Z,101268.63
2023-08-08T08:58:17.721Z,101264.22
2023-08-08T09:00:46.946Z,101264.22
2023-08-08T09:03:16.826Z,101263.44
2023-08-08T09:05:46.108Z,101259.81
2023-08-08T09:08:14.199Z,101262.66
2023-08-08T09:10:42.280Z,101263.72
2023-08-08T09:13:10.760Z,101255.84
2023-08-08T09:15:38.777Z,101261.22
2023-08-08T09:18:10.247Z,101266.63
2023-08-08T09:20:39.666Z,101268.47
2023-08-08T09:23:07.676Z,101278.41
2023-08-08T09:25:35.846Z,101270.38
2023-08-08T09:28:03.914Z,101266.75
2023-08-08T09:30:34.182Z,101270.41
2023-08-08T09:33:02.943Z,101266.88
2023-08-08T09:35:35.903Z,101267.72
2023-08-08T09:38:08.648Z,101269.66
2023-08-08T09:40:37.384Z,101273.28
2023-08-08T09:43:09.825Z,101278.81
2023-08-08T09:45:38.956Z,101276.91
2023-08-08T09:48:08.496Z,101283.22
2023-08-08T09:50:37.692Z,101271.63
2023-08-08T09:53:06.906Z,101280.53
2023-08-08T09:55:37.298Z,101271.63
2023-08-08T09:58:07.345Z,101272.59
2023-08-08T10:00:36.010Z,101266.38
2023-08-08T10:03:04.372Z,101269.06
2023-08-08T10:05:32.892Z,101269.81
2023-08-08T10:08:00.983Z,101270.69
2023-08-08T10:10:29.721Z,101268.97
2023-08-08T10:12:59.690Z,101262.81
2023-08-08T10:15:28.529Z,101271.75
2023-08-08T10:17:58.277Z,101278.03
2023-08-08T10:20:27.163Z,101266.38
2023-08-08T10:22:59.116Z,101266.28
2023-08-08T10:25:29.690Z,101278.72
2023-08-08T10:28:23.917Z,101277.97
2023-08-08T10:30:56.144Z,101283.22
2023-08-08T10:33:25.581Z,101276.91
2023-08-08T10:36:00.107Z,101281.41
2023-08-08T10:38:29.777Z,101283.13
2023-08-08T10:40:59.656Z,101289.38
2023-08-08T10:43:30.174Z,101275.97
2023-08-08T10:46:12.963Z,101289.38
2023-08-08T10:48:54.922Z,101280.38
2023-08-08T10:51:33.795Z,101280.28
2023-08-08T10:54:06.019Z,101273.09
2023-08-08T10:56:35.475Z,101286.47
2023-08-08T10:59:15.753Z,101284.78
2023-08-08T11:01:44.803Z,101289.16
2023-08-08T11:04:13.771Z,101285.56
2023-08-08T11:06:42.227Z,101289.88
2023-08-08T11:09:11.032Z,101271.25
2023-08-08T11:11:40.212Z,101273.91
2023-08-08T11:14:14.112Z,101281.94
2023-08-08T11:16:42.524Z,101287.31
2023-08-08T11:19:11.344Z,101285.38
2023-08-08T11:21:42.105Z,101273.75
2023-08-08T11:24:11.282Z,101276.44
2023-08-08T11:26:41.409Z,101270.09
2023-08-08T11:29:09.803Z,101279.88
2023-08-08T11:31:39.923Z,101276.44
2023-08-08T11:34:08.148Z,101273.81
2023-08-08T11:36:37.396Z,101282.81
2023-08-08T11:39:08.883Z,101271.25
2023-08-08T11:41:38.206Z,101269.41
2023-08-08T11:44:07.141Z,101265.72
2023-08-08T11:46:35.160Z,101271.94
2023-08-08T11:49:08.518Z,101276.44
2023-08-08T11:51:37.040Z,101271.13
2023-08-08T11:54:06.010Z,101271.25
2023-08-08T11:56:36.332Z,101269.66
2023-08-08T11:59:04.851Z,101272.16
2023-08-08T12:01:35.002Z,101260.53
2023-08-08T12:04:10.614Z,101265.72
2023-08-08T12:06:40.207Z,101270.09
2023-08-08T12:09:08.422Z,101265.59
2023-08-08T12:11:38.334Z,101259.41
2023-08-08T12:14:06.715Z,101254.91
2023-08-08T12:16:35.009Z,101267.25
2023-08-08T12:19:04.293Z,101258.25
2023-08-08T12:21:36.936Z,101251.94
2023-08-08T12:24:05.352Z,101259.97
2023-08-08T12:26:34.380Z,101263.44
2023-08-08T12:29:02.423Z,101268.72
2023-08-08T12:31:30.409Z,101260.59
2023-08-08T12:33:58.366Z,101258.69
2023-08-08T12:36:26.378Z,101249.59
2023-08-08T12:38:55.707Z,101254.78
2023-08-08T12:41:25.876Z,101246.66
2023-08-08T12:43:56.505Z,101253.72
2023-08-08T12:46:24.561Z,101252.75
2023-08-08T12:48:52.565Z,101256.34
2023-08-08T12:51:20.640Z,101258.13
2023-08-08T12:53:48.640Z,101260.81
2023-08-08T12:56:17.980Z,101257.19
2023-08-08T12:58:48.232Z,101262.56
2023-08-08T13:01:18.907Z,101259.94
2023-08-08T13:03:51.529Z,101266.16
2023-08-08T13:06:31.289Z,101252.75
2023-08-08T13:08:59.299Z,101263.41
2023-08-08T13:11:28.914Z,101263.31
2023-08-08T13:13:56.950Z,101258.06
2023-08-08T13:16:24.994Z,101250.97
2023-08-08T13:18:53.071Z,101263.47
2023-08-08T13:21:21.155Z,101268.00
2023-08-08T13:23:49.205Z,101261.69
2023-08-08T13:26:18.659Z,101261.69
2023-08-08T13:28:49.403Z,101265.50
2023-08-08T13:31:17.608Z,101269.97
2023-08-08T13:33:45.569Z,101271.91
2023-08-08T13:36:16.126Z,101264.81
2023-08-08T13:38:44.134Z,101268.44
2023-08-08T13:41:12.176Z,101266.72
2023-08-08T13:43:40.262Z,101269.41
2023-08-08T13:46:10.918Z,101258.78
2023-08-08T13:48:39.121Z,101262.38
2023-08-08T13:51:07.073Z,101266.72
2023-08-08T13:53:35.344Z,101262.91
2023-08-08T13:56:03.320Z,101280.63
2023-08-08T13:58:31.430Z,101279.56
2023-08-08T14:00:59.429Z,101295.56
2023-08-08T14:03:28.951Z,101287.53
2023-08-08T14:05:57.045Z,101279.66
2023-08-08T14:08:25.029Z,101287.81
2023-08-08T14:10:52.980Z,101283.47
2023-08-08T14:13:22.727Z,101284.34
2023-08-08T14:15:52.874Z,101288.84
2023-08-08T14:18:21.502Z,101296.88
2023-08-08T14:20:50.808Z,101291.41
2023-08-08T14:23:18.799Z,101285.13
2023-08-08T14:25:49.457Z,101293.16
2023-08-08T14:28:17.456Z,101299.56
2023-08-08T14:30:45.458Z,101292.47
2023-08-08T14:33:17.125Z,101292.38
2023-08-08T14:35:45.520Z,101299.66
2023-08-08T14:38:14.939Z,101293.41
2023-08-08T14:40:45.577Z,101283.66
2023-08-08T14:43:13.788Z,101295.22
2023-08-08T14:45:42.114Z,101290.84
2023-08-08T14:48:10.135Z,101290.94
2023-08-08T14:50:38.125Z,101298.00
2023-08-08T14:53:06.997Z,101288.16
2023-08-08T14:55:38.600Z,101291.78
2023-08-08T14:58:09.272Z,101297.91
2023-08-08T15:00:37.339Z,101282.63
2023-08-08T15:03:06.942Z,101279.16
2023-08-08T15:05:38.355Z,101290.66
2023-08-08T15:08:06.503Z,101304.06
2023-08-08T15:10:36.012Z,101289.69
2023-08-08T15:13:05.604Z,101295.06
2023-08-08T15:15:33.952Z,101303.88
2023-08-08T15:18:02.036Z,101301.22
2023-08-08T15:20:30.093Z,101297.75
2023-08-08T15:22:58.060Z,101311.25
2023-08-08T15:25:26.053Z,101302.25
2023-08-08T15:27:54.061Z,101304.06
2023-08-08T15:30:23.583Z,101299.56
2023-08-08T15:32:51.602Z,101309.41
2023-08-08T15:35:19.727Z,101301.44
2023-08-08T15:38:15.683Z,101314.00
2023-08-08T15:40:44.066Z,101313.06
2023-08-08T15:43:12.065Z,101306.91
2023-08-08T15:45:41.566Z,101319.34
2023-08-08T15:48:09.640Z,101310.38
2023-08-08T15:50:37.801Z,101309.41
2023-08-08T15:53:06.114Z,101304.13
2023-08-08T15:55:34.354Z,101305.09
2023-08-08T15:58:02.895Z,101298.13
2023-08-08T16:00:33.492Z,101293.50
2023-08-08T16:03:02.929Z,101299.72
2023-08-08T16:05:31.337Z,101296.09
2023-08-08T16:07:59.274Z,101296.88
2023-08-08T16:10:27.249Z,101299.56
2023-08-08T16:12:55.379Z,101308.56
2023-08-08T16:15:25.237Z,101303.28
2023-08-08T16:17:53.262Z,101302.34
2023-08-08T16:20:24.056Z,101296.88
2023-08-08T16:22:52.165Z,101309.41
2023-08-08T16:25:20.340Z,101298.69
2023-08-08T16:27:50.936Z,101304.06
2023-08-08T16:30:19.066Z,101296.97
2023-08-08T16:32:47.039Z,101297.91
2023-08-08T16:35:15.287Z,101295.34
2023-08-08T16:37:44.707Z,101287.41
2023-08-08T16:40:12.950Z,101287.28
2023-08-08T16:42:40.920Z,101285.38
2023-08-08T16:45:09.579Z,101280.69
2023-08-08T16:47:38.218Z,101289.44
2023-08-08T16:50:07.233Z,101284.75
2023-08-08T16:52:35.471Z,101287.25
2023-08-08T16:55:05.721Z,101285.38
2023-08-08T16:57:33.692Z,101285.16
2023-08-08T17:00:02.484Z,101294.97
2023-08-08T17:02:31.142Z,101281.34
2023-08-08T17:04:59.172Z,101294.69
2023-08-08T17:07:27.105Z,101293.72
2023-08-08T17:09:55.332Z,101293.63
2023-08-08T17:12:24.755Z,101293.53
2023-08-08T17:14:53.018Z,101298.81
2023-08-08T17:17:21.586Z,101293.44
2023-08-08T17:19:49.579Z,101290.69
2023-08-08T17:22:17.511Z,101283.50
2023-08-08T17:24:45.490Z,101283.50
2023-08-08T17:27:13.543Z,101285.22
2023-08-08T17:29:42.917Z,101299.50
2023-08-08T17:32:11.472Z,101286.00
2023-08-08T17:34:39.509Z,101283.34
2023-08-08T17:37:07.467Z,101274.31
2023-08-08T17:39:35.530Z,101269.81
2023-08-08T17:42:03.889Z,101264.47
2023-08-08T17:44:32.643Z,101269.81
2023-08-08T17:47:04.547Z,101266.19
2023-08-08T17:49:32.608Z,101272.41
2023-08-08T17:52:00.925Z,101287.56
2023-08-08T17:54:29.086Z,101282.19
2023-08-08T17:56:59.416Z,101297.31
2023-08-08T17:59:30.774Z,101291.97
2023-08-08T18:01:59.622Z,101294.63
2023-08-08T18:04:29.365Z,101294.63
2023-08-08T18:07:00.167Z,101298.19
2023-08-08T18:09:29.120Z,101298.19
2023-08-08T18:11:59.182Z,101295.50
2023-08-08T18:14:30.263Z,101284.78
2023-08-08T18:17:08.065Z,101289.97
2023-08-08T18:19:37.638Z,101295.22
2023-08-08T18:22:07.063Z,101290.72
2023-08-08T18:24:37.606Z,101287.09
2023-08-08T18:27:05.710Z,101284.41
2023-08-08T18:29:33.664Z,101280.66
2023-08-08T18:32:02.494Z,101285.06
2023-08-08T18:34:30.891Z,101293.13
2023-08-08T18:37:00.262Z,101263.63
2023-08-08T18:39:28.432Z,101264.50
2023-08-08T18:41:59.492Z,101267.09
2023-08-08T18:44:27.797Z,101267.94
2023-08-08T18:46:55.824Z,101267.94
2023-08-08T18:49:23.982Z,101267.94
2023-08-08T18:51:52.210Z,101266.13
2023-08-08T18:54:21.571Z,101270.50
2023-08-08T18:56:49.539Z,101266.91
2023-08-08T18:59:17.649Z,101275.81
2023-08-08T19:01:45.678Z,101282.88
2023-08-08T19:04:13.749Z,101269.47
2023-08-08T19:06:41.834Z,101277.53
2023-08-08T19:09:10.054Z,101273.03
2023-08-08T19:11:42.029Z,101281.06
2023-08-08T19:14:10.002Z,101286.44
2023-08-08T19:16:38.224Z,101282.81
2023-08-08T19:19:06.644Z,101282.81
2023-08-08T19:21:34.652Z,101276.56
2023-08-08T19:24:02.687Z,101288.19
2023-08-08T19:26:34.669Z,101285.50
2023-08-08T19:29:04.502Z,101284.53
2023-08-08T19:31:32.439Z,101288.19
2023-08-08T19:34:06.901Z,101283.69
2023-08-08T19:36:36.508Z,101293.53
2023-08-08T19:39:07.615Z,101294.41
2023-08-08T19:41:38.416Z,101291.72
2023-08-08T19:44:10.613Z,101285.50
2023-08-08T19:46:38.647Z,101285.50
2023-08-08T19:49:07.819Z,101289.13
2023-08-08T19:51:38.842Z,101295.44
2023-08-08T19:54:06.991Z,101285.56
2023-08-08T19:56:35.066Z,101293.63
2023-08-08T19:59:03.095Z,101278.50
2023-08-08T20:01:32.594Z,101277.63
2023-08-08T20:04:00.594Z,101280.31
2023-08-08T20:06:31.467Z,101278.50
2023-08-08T20:08:59.484Z,101280.31
2023-08-08T20:11:27.920Z,101278.56
2023-08-08T20:13:55.963Z,101275.03
2023-08-08T20:16:26.304Z,101277.81
2023-08-08T20:18:55.779Z,101266.13
2023-08-08T20:21:23.734Z,101250.03
2023-08-08T20:23:51.846Z,101254.41
2023-08-08T20:26:19.804Z,101246.31
2023-08-08T20:28:47.795Z,101250.72
2023-08-08T20:31:15.849Z,101253.50
2023-08-08T20:33:46.258Z,101261.44
2023-08-08T20:36:16.171Z,101251.66
2023-08-08T20:38:44.116Z,101233.84
2023-08-08T20:41:12.196Z,101234.72
2023-08-08T20:43:41.446Z,101229.34
2023-08-08T20:46:11.921Z,101222.25
2023-08-08T20:48:40.145Z,101237.41
2023-08-08T20:51:08.115Z,101241.00
2023-08-08T20:53:37.492Z,101247.34
2023-08-08T20:56:08.073Z,101259.78
2023-08-08T20:58:38.683Z,101271.31
2023-08-08T21:01:06.834Z,101267.75
2023-08-08T21:03:34.948Z,101274.84
2023-08-08T21:06:03.016Z,101264.13
2023-08-08T21:08:35.465Z,101240.94
2023-08-08T21:11:06.561Z,101240.09
2023-08-08T21:13:34.684Z,101240.94
2023-08-08T21:16:02.663Z,101229.34
2023-08-08T21:18:30.693Z,101236.63
2023-08-08T21:20:58.739Z,101239.22
2023-08-08T21:23:29.338Z,101247.16
2023-08-08T21:25:57.300Z,101220.44
2023-08-08T21:28:30.537Z,101194.56
2023-08-08T21:30:58.712Z,101207.13
2023-08-08T21:33:26.764Z,101216.13
2023-08-08T21:35:54.793Z,101228.56
2023-08-08T21:38:22.821Z,101221.38
2023-08-08T21:40:50.810Z,101210.66
2023-08-08T21:43:18.846Z,101219.56
2023-08-08T21:45:48.200Z,101207.13
2023-08-08T21:48:16.225Z,101208.84
2023-08-08T21:50:44.322Z,101199.06
2023-08-08T21:53:12.309Z,101201.75
2023-08-08T21:55:40.307Z,101217.84
2023-08-08T21:58:08.522Z,101201.84
2023-08-08T22:00:36.452Z,101208.94
2023-08-08T22:03:06.185Z,101207.22
2023-08-08T22:05:36.250Z,101216.13
2023-08-08T22:08:04.771Z,101214.31
2023-08-08T22:10:34.659Z,101191.03
2023-08-08T22:13:02.891Z,101190.06
2023-08-08T22:15:34.080Z,101191.88
2023-08-08T22:18:13.538Z,101209.78
2023-08-08T22:20:45.621Z,101210.66
2023-08-08T22:23:20.630Z,101214.19
2023-08-08T22:25:50.697Z,101223.22
2023-08-08T22:28:18.950Z,101221.38
2023-08-08T22:30:52.887Z,101219.56
2023-08-08T22:33:22.809Z,101203.47
2023-08-08T22:35:50.841Z,101199.00
2023-08-08T22:38:19.105Z,101207.03
2023-08-08T22:40:48.137Z,101216.13
2023-08-08T22:43:16.456Z,101220.69
2023-08-08T22:45:44.428Z,101233.25
2023-08-08T22:48:12.404Z,101234.22
2023-08-08T22:50:43.841Z,101230.69
2023-08-08T22:53:14.508Z,101228.09
2023-08-08T22:55:42.517Z,101221.00
2023-08-08T22:58:11.754Z,101222.81
2023-08-08T23:00:39.838Z,101207.69
2023-08-08T23:03:08.652Z,101209.50
2023-08-08T23:05:36.816Z,101214.88
2023-08-08T23:08:06.938Z,101203.28
2023-08-08T23:10:37.769Z,101198.84
2023-08-08T23:13:05.844Z,101195.31
2023-08-08T23:15:33.779Z,101200.69
2023-08-08T23:18:01.809Z,101203.47
2023-08-08T23:20:32.678Z,101203.47
2023-08-08T23:23:00.663Z,101201.75
2023-08-08T23:25:29.979Z,101199.94
2023-08-08T23:27:57.960Z,101200.78
2023-08-08T23:30:26.759Z,101203.47
2023-08-08T23:32:55.278Z,101204.34
2023-08-08T23:35:23.886Z,101199.81
2023-08-08T23:37:52.284Z,101202.63
2023-08-08T23:40:20.385Z,101208.84
2023-08-08T23:42:49.753Z,101198.97
2023-08-08T23:45:17.866Z,101194.47
2023-08-08T23:47:45.920Z,101194.47
2023-08-08T23:50:16.993Z,101194.56
2023-08-08T23:52:45.062Z,101209.69
2023-08-08T23:55:13.161Z,101199.06
2023-08-08T23:57:41.094Z,101201.75
